Aeroporto :
LOGIN :

Iscrizione | Disclaimer

   EN    FR    IT 

 










Sommario :    VFR   VFR Marginale   IFR   IFR Intensivo   IFR Molto Intensivo
Visibilità : 
Base nubi : 
>= 8 km
>= 3000ft
5 / 8 km
1000 / 3000 ft
1500m / 5 km
500 / 1000 ft
800 / 1500m
200 / 500 ft
< 800m
< 200 ft
Simboli :   Temporali  Nebbia  Neve Forte  Precipitazioni Forti  Vento > 20 kt
SIGMETs :   Varie  Temporali  Ghiacco  Turbolenza  Onda orograficha  Ceneri Vulcaniche






- Altitudine del aeroporto : 407 ft


EGDM - MoD Boscombe Down Amesbury

ULTIMO METAR :
  • 131150Z 23008KT 9999 FEW020 BKN120 08/04 Q0999 TEMPO SCT020 RMK BLU TEMPO WHT

METARs OBSOLETI :
  • 131120Z 24009KT 9999 SCT021 BKN120 07/04 Q1000 TEMPO FEW021 RMK WHT TEMPO BLU
  • 131050Z 22008KT 9999 FEW015 BKN140 07/04 Q1001 NOSIG RMK BLU BLU
  • 131020Z 22008KT 9999 FEW016 SCT140 07/04 Q1001 NOSIG RMK BLU BLU
  • 130950Z 23008KT 9999 FEW015 07/04 Q1001 NOSIG RMK BLU BLU
  • 130922Z 23006KT CAVOK 06/04 Q1002 NOSIG RMK BLU BLU

TAF TAF EGDM
Valido dal 13 a 12 ore il 13 a 19 ore UTC


131057Z 1312/1319 19008KT 9999 FEW020
PROB30
TEMPO 1312/1316 SCT020
BECMG 1316/1319 7000 -RA BKN015
PROB30
TEMPO 1317/1319 15015G25KT 4000 RA BKN010



MetMap, La meteo Aeronautica in un colpo d'occhio ! - Copyright ORBIFLY Dicembre 2007 - Disclaimer

ORBIFLY MET'MAP TEAM :

Programmazione e sviluppo : Alexandra Zaïnal
Concezione e sviluppo : Baudouin d'Aumeries
Co-Programmazione e sviluppo : Marc-Olivier Méhu
Supporto tecnico e logistico : Manuel Goepfert
Aiuto per la traduzione : Arnaldo La Scala

Contatto : metmap@orbifly.com




FONTI E CREDITI :

   NOAA